KC5NAM Weather Reports


Display with metric or nautical units.
time (UTC)temp
F
wind
direction
speed
MPH
gust
MPH
rain 1hr
in
rain 24hr
in
rain mn
in
humidity
%
barometer
mb
20210801143142 87 165 1.0 10.0 0.00 0.00 0.00 83 1016.8
20210801141554 86 0 1.0 9.0 0.00 0.00 0.00 86 1016.9
20210801140126 85 0 1.0 7.0 0.00 0.00 0.00 88 1017.0
20210801134557 83 0 1.0 5.0 0.00 0.00 0.00 91 1016.9
20210801133105 82 0 0.0 4.0 0.00 0.00 0.00 94 1016.8
20210801131620 80 0 0.0 1.0 0.00 0.00 0.00 95 1016.7
20210801130144 80 0 0.0 0.0 0.00 0.00 0.00 94 1016.4
20210801124632 78 0 0.0 0.0 0.00 0.00 0.00 94 1016.4
20210801123200 78 0 0.0 0.0 0.00 0.00 0.00 95 1016.3
20210801121622 77 0 0.0 0.0 0.00 0.00 0.00 95 1016.2
20210801120158 77 0 0.0 0.0 0.00 0.00 0.00 95 1016.1
20210801114616 77 0 0.0 0.0 0.00 0.00 0.00 95 1016.1
20210801113139 77 0 0.0 0.0 0.00 0.00 0.00 95 1016.2
20210801111541 77 0 0.0 0.0 0.00 0.00 0.00 95 1016.3
20210801110102 77 0 0.0 0.0 0.00 0.00 0.00 95 1016.3
20210801104546 78 0 0.0 0.0 0.00 0.00 0.00 95 1016.2
20210801103101 78 0 0.0 0.0 0.00 0.00 0.00 95 1016.2
20210801101615 78 0 0.0 0.0 0.00 0.00 0.00 95 1016.1
20210801100147 78 0 0.0 0.0 0.00 0.00 0.00 95 1016.1
20210801094613 78 0 0.0 0.0 0.00 0.00 0.00 95 1016.1
20210801093109 78 0 0.0 0.0 0.00 0.00 0.00 94 1015.9
20210801091646 78 0 0.0 0.0 0.00 0.00 0.00 94 1015.8
20210801090114 78 0 0.0 0.0 0.00 0.00 0.00 94 1015.8
20210801084636 79 0 0.0 0.0 0.00 0.00 0.00 94 1015.9
20210801083125 79 0 0.0 0.0 0.00 0.00 0.00 94 1016.0
20210801081558 79 0 0.0 0.0 0.00 0.00 0.00 94 1015.8
20210801080102 80 0 0.0 0.0 0.00 0.00 0.00 93 1015.7
20210801074557 80 0 0.0 0.0 0.00 0.00 0.00 92 1015.6
20210801073147 80 0 0.0 0.0 0.00 0.00 0.00 92 1015.6
20210801071734 80 0 0.0 0.0 0.00 0.00 0.00 92 1015.4
20210801070146 80 0 0.0 0.0 0.00 0.00 0.00 91 1015.5
20210801064611 80 0 0.0 0.0 0.00 0.00 0.00 91 1015.2
20210801063228 81 0 0.0 0.0 0.00 0.00 0.00 91 1015.5
20210801061621 81 0 0.0 0.0 0.00 0.00 0.00 90 1015.4
20210801060206 81 0 0.0 0.0 0.00 0.00 0.00 90 1015.5
20210801054612 81 0 0.0 3.0 0.00 0.00 0.00 89 1015.3
20210801053137 81 0 0.0 4.0 0.00 0.00 0.00 89 1015.2
20210801051747 81 0 0.0 1.0 0.00 0.00 0.00 90 1015.3
20210801050157 81 0 0.0 0.0 0.00 0.00 0.00 89 1015.4
20210801044627 82 0 0.0 0.0 0.00 0.00 0.00 89 1015.3
20210801043108 82 0 0.0 5.0 0.00 0.00 0.00 88 1015.3
20210801041612 82 0 0.0 0.0 0.00 0.00 0.00 88 1015.1
20210801040055 82 0 0.0 4.0 0.00 0.00 0.00 88 1015.1
20210801034621 83 0 0.0 2.0 0.00 0.00 0.00 88 1015.1
20210801033126 83 0 0.0 3.0 0.00 0.00 0.00 88 1015.2
20210801031548 84 0 0.0 4.0 0.00 0.00 0.00 88 1015.2
20210801030037 84 0 0.0 4.0 0.00 0.00 0.00 88 1015.2
20210801024637 83 0 1.0 6.0 0.00 0.00 0.00 87 1015.0
20210801023139 84 0 0.0 2.0 0.00 0.00 0.00 87 1015.0
20210801021610 84 0 0.0 2.0 0.00 0.00 0.00 86 1015.1
20210801020135 84 0 0.0 0.0 0.00 0.00 0.00 84 1015.1
20210801014557 84 0 0.0 3.0 0.00 0.00 0.00 83 1015.2
20210801013218 85 0 0.0 4.0 0.00 0.00 0.00 82 1015.2
20210801011552 85 0 0.0 3.0 0.00 0.00 0.00 80 1015.3
20210801010108 86 0 0.0 5.0 0.00 0.00 0.00 78 1015.4
20210801004654 86 0 0.0 0.0 0.00 0.00 0.00 77 1015.4
20210801003045 86 0 0.0 0.0 0.00 0.00 0.00 76 1015.5
20210801001600 87 0 0.0 0.0 0.00 0.00 0.00 78 1015.4
20210801000049 87 0 0.0 6.0 0.00 0.00 0.00 77 1015.3
20210731234608 87 0 0.0 6.0 0.00 0.00 0.00 77 1015.4
20210731233102 88 360 1.0 6.0 0.00 0.00 0.00 76 1015.3
20210731231651 88 0 0.0 4.0 0.00 0.00 0.00 77 1015.2
20210731230128 89 192 0.0 4.0 0.00 0.00 0.00 77 1015.2
20210731224831 88 0 0.0 4.0 0.00 0.00 0.00 78 1015.4
20210731223053 87 0 0.0 5.0 0.00 0.00 0.00 82 1015.6
20210731221636 86 0 0.0 4.0 0.00 0.00 0.00 83 1015.7
20210731220105 86 0 1.0 8.0 0.00 0.00 0.00 83 1015.7
20210731214636 86 0 1.0 8.0 0.00 0.00 0.00 82 1015.8
20210731213113 84 0 0.0 0.0 0.00 0.00 0.00 84 1015.8
20210731211651 83 0 0.0 0.0 0.00 0.00 0.00 85 1016.3
20210731210120 83 0 0.0 7.0 0.00 0.00 0.00 83 1016.3
20210731204557 85 0 0.0 10.0 0.00 0.00 0.00 79 1016.6
20210731203224 89 360 4.0 13.0 0.00 0.00 0.00 73 1016.8
20210731201712 92 162 0.0 5.0 0.00 0.00 0.00 69 1016.8
20210731200118 93 0 0.0 0.0 0.00 0.00 0.00 65 1017.0
20210731194611 94 0 0.0 0.0 0.00 0.00 0.00 61 1017.0
20210731193110 94 0 0.0 0.0 0.00 0.00 0.00 63 1016.8
20210731191614 94 0 0.0 2.0 0.00 0.00 0.00 63 1016.9
20210731190114 93 0 0.0 0.0 0.00 0.00 0.00 67 1017.0
20210731184702 94 0 0.0 0.0 0.00 0.00 0.00 64 1017.1
20210731183123 92 0 0.0 0.0 0.00 0.00 0.00 65 1017.2
20210731181559 92 0 0.0 0.0 0.00 0.00 0.00 66 1017.2
20210731180204 92 0 0.0 0.0 0.00 0.00 0.00 64 1017.4
20210731174615 92 0 0.0 0.0 0.00 0.00 0.00 67 1017.4
20210731173058 92 0 0.0 0.0 0.00 0.00 0.00 69 1017.4
20210731171613 91 0 0.0 0.0 0.00 0.00 0.00 69 1017.5
20210731170121 91 0 0.0 1.0 0.00 0.00 0.00 72 1017.6
20210731164634 91 0 0.0 5.0 0.00 0.00 0.00 67 1017.7
20210731163110 90 0 0.0 1.0 0.00 0.00 0.00 69 1017.8
20210731161650 90 0 0.0 0.0 0.00 0.00 0.00 74 1018.0
20210731160126 89 0 0.0 0.0 0.00 0.00 0.00 72 1018.0
20210731154550 89 0 0.0 3.0 0.00 0.00 0.00 75 1018.0
20210731153110 88 0 0.0 0.0 0.00 0.00 0.00 77 1018.1
20210731151537 87 0 0.0 0.0 0.00 0.00 0.00 82 1018.1
20210731150144 87 0 0.0 0.0 0.00 0.00 0.00 82 1018.0
20210731144711 86 0 0.0 0.0 0.00 0.00 0.00 83 1018.0